createdAt,value
2018-06-10T00:01:54.541Z,18.73
2018-06-10T00:04:22.815Z,18.12
2018-06-10T00:06:51.154Z,18.52
2018-06-10T00:09:19.127Z,17.45
2018-06-10T00:11:47.386Z,18.60
2018-06-10T00:14:15.655Z,17.45
2018-06-10T00:16:43.919Z,18.20
2018-06-10T00:19:12.171Z,20.15
2018-06-10T00:21:40.451Z,20.75
2018-06-10T00:24:08.672Z,19.95
2018-06-10T00:26:36.975Z,18.87
2018-06-10T00:29:10.686Z,19.30
2018-06-10T00:31:38.931Z,20.27
2018-06-10T00:34:07.178Z,18.90
2018-06-10T00:36:35.481Z,20.00
2018-06-10T00:39:03.838Z,20.50
2018-06-10T00:41:32.133Z,21.20
2018-06-10T00:44:00.360Z,21.27
2018-06-10T00:46:28.604Z,21.05
2018-06-10T00:48:57.028Z,21.30
2018-06-10T00:51:25.278Z,22.43
2018-06-10T00:53:53.578Z,21.33
2018-06-10T00:56:33.420Z,20.30
2018-06-10T00:59:01.667Z,19.90
2018-06-10T01:01:29.899Z,21.50
2018-06-10T01:03:58.147Z,22.37
2018-06-10T01:06:26.381Z,21.17
2018-06-10T01:08:54.591Z,21.82
2018-06-10T01:11:22.859Z,22.40
2018-06-10T01:13:51.092Z,22.20
2018-06-10T01:16:19.353Z,21.50
2018-06-10T01:18:47.627Z,21.70
2018-06-10T01:21:15.883Z,21.07
2018-06-10T01:23:44.150Z,19.62
2018-06-10T01:26:12.399Z,21.27
2018-06-10T01:28:40.644Z,22.40
2018-06-10T01:31:08.909Z,21.80
2018-06-10T01:33:37.146Z,19.98
2018-06-10T01:36:05.384Z,20.50
2018-06-10T01:38:33.663Z,21.42
2018-06-10T01:41:01.930Z,20.70
2018-06-10T01:43:30.194Z,20.72
2018-06-10T01:45:58.446Z,21.40
2018-06-10T01:48:26.706Z,21.10
2018-06-10T01:50:54.969Z,21.50
2018-06-10T01:53:23.218Z,23.40
2018-06-10T01:55:51.470Z,23.77
2018-06-10T01:58:19.734Z,23.27
2018-06-10T02:00:47.970Z,24.77
2018-06-10T02:03:16.262Z,24.70
2018-06-10T02:05:44.507Z,25.52
2018-06-10T02:08:12.764Z,24.50
2018-06-10T02:10:41.008Z,22.58
2018-06-10T02:13:09.487Z,24.23
2018-06-10T02:15:37.729Z,23.45
2018-06-10T02:18:05.972Z,24.23
2018-06-10T02:20:34.220Z,23.38
2018-06-10T02:23:02.495Z,24.40
2018-06-10T02:25:30.754Z,22.95
2018-06-10T02:27:59.019Z,23.45
2018-06-10T02:30:27.278Z,24.55
2018-06-10T02:32:55.498Z,24.10
2018-06-10T02:35:23.774Z,25.20
2018-06-10T02:37:52.050Z,23.65
2018-06-10T02:40:20.295Z,24.18
2018-06-10T02:42:48.325Z,24.50
2018-06-10T02:45:16.583Z,24.05
2018-06-10T02:47:44.835Z,23.47
2018-06-10T02:50:13.166Z,24.32
2018-06-10T02:52:41.458Z,22.27
2018-06-10T02:55:09.722Z,23.38
2018-06-10T02:57:37.711Z,23.62
2018-06-10T03:00:06.180Z,23.50
2018-06-10T03:02:34.410Z,24.15
2018-06-10T03:05:02.658Z,25.80
2018-06-10T03:07:30.935Z,25.23
2018-06-10T03:09:59.217Z,27.77
2018-06-10T03:12:27.446Z,27.35
2018-06-10T03:14:55.698Z,28.02
2018-06-10T03:17:23.969Z,27.85
2018-06-10T03:19:52.208Z,28.90
2018-06-10T03:22:20.460Z,30.97
2018-06-10T03:24:48.712Z,28.55
2018-06-10T03:27:16.986Z,28.73
2018-06-10T03:29:45.320Z,29.92
2018-06-10T03:32:13.700Z,29.92
2018-06-10T03:34:41.944Z,30.23
2018-06-10T03:37:10.151Z,30.35
2018-06-10T03:39:38.417Z,29.35
2018-06-10T03:42:06.699Z,28.50
2018-06-10T03:44:34.955Z,30.97
2018-06-10T03:47:03.238Z,32.55
2018-06-10T03:49:31.471Z,29.12
2018-06-10T03:51:59.722Z,30.77
2018-06-10T03:54:27.964Z,29.85
2018-06-10T03:56:56.208Z,30.90
2018-06-10T03:59:24.457Z,29.25
2018-06-10T04:01:52.743Z,32.05
2018-06-10T04:04:21.006Z,30.43
2018-06-10T04:06:49.261Z,30.20
2018-06-10T04:09:17.519Z,30.77
2018-06-10T04:11:45.776Z,31.00
2018-06-10T04:14:14.082Z,30.45
2018-06-10T04:16:42.326Z,30.55
2018-06-10T04:19:10.564Z,32.65
2018-06-10T04:21:38.807Z,33.10
2018-06-10T04:24:07.048Z,33.38
2018-06-10T04:26:35.320Z,33.42
2018-06-10T04:29:03.576Z,32.38
2018-06-10T04:31:31.802Z,34.20
2018-06-10T04:34:00.320Z,33.35
2018-06-10T04:36:28.609Z,34.00
2018-06-10T04:38:56.870Z,32.73
2018-06-10T04:41:25.104Z,34.50
2018-06-10T04:43:53.393Z,33.83
2018-06-10T04:46:21.643Z,34.25
2018-06-10T04:48:49.887Z,33.05
2018-06-10T04:51:18.138Z,32.90
2018-06-10T04:53:46.458Z,32.33
2018-06-10T04:56:14.749Z,33.30
2018-06-10T04:58:43.019Z,34.53
2018-06-10T05:01:11.282Z,32.15
2018-06-10T05:03:39.558Z,32.42
2018-06-10T05:06:07.836Z,34.10
2018-06-10T05:08:36.067Z,34.53
2018-06-10T05:11:04.354Z,34.25
2018-06-10T05:13:32.579Z,33.83
2018-06-10T05:16:00.843Z,34.40
2018-06-10T05:18:29.105Z,34.57
2018-06-10T05:20:57.374Z,35.70
2018-06-10T05:23:25.641Z,36.35
2018-06-10T05:25:53.899Z,35.28
2018-06-10T05:28:22.165Z,33.75
2018-06-10T05:30:50.171Z,34.73
2018-06-10T05:33:18.420Z,33.70
2018-06-10T05:35:46.722Z,35.45
2018-06-10T05:38:14.990Z,33.30
2018-06-10T05:40:43.222Z,32.78
2018-06-10T05:43:11.480Z,35.25
2018-06-10T05:45:39.742Z,35.57
2018-06-10T05:48:08.061Z,33.35
2018-06-10T05:50:36.302Z,34.25
2018-06-10T05:53:04.565Z,33.45
2018-06-10T05:55:32.816Z,34.25
2018-06-10T05:58:01.088Z,35.20
2018-06-10T06:00:29.347Z,36.98
2018-06-10T06:02:57.606Z,33.67
2018-06-10T06:05:25.860Z,34.70
2018-06-10T06:07:54.149Z,38.17
2018-06-10T06:10:22.430Z,35.52
2018-06-10T06:12:50.778Z,34.43
2018-06-10T06:15:18.989Z,35.78
2018-06-10T06:17:47.202Z,34.33
2018-06-10T06:20:15.471Z,31.35
2018-06-10T06:22:43.719Z,33.13
2018-06-10T06:25:11.976Z,33.58
2018-06-10T06:27:40.254Z,34.27
2018-06-10T06:30:08.507Z,33.67
2018-06-10T06:32:36.773Z,32.60
2018-06-10T06:35:05.036Z,31.35
2018-06-10T06:37:33.308Z,34.85
2018-06-10T06:40:01.598Z,34.10
2018-06-10T06:42:29.864Z,31.50
2018-06-10T06:44:58.124Z,32.03
2018-06-10T06:47:26.394Z,31.07
2018-06-10T06:49:54.732Z,31.95
2018-06-10T06:52:23.034Z,30.70
2018-06-10T06:54:51.275Z,31.60
2018-06-10T06:57:19.550Z,31.40
2018-06-10T06:59:47.814Z,30.60
2018-06-10T07:02:16.083Z,29.55
2018-06-10T07:04:44.349Z,30.70
2018-06-10T07:07:12.611Z,32.10
2018-06-10T07:09:40.848Z,28.62
2018-06-10T07:12:09.092Z,30.52
2018-06-10T07:14:37.343Z,29.90
2018-06-10T07:17:06.052Z,29.20
2018-06-10T07:19:34.342Z,29.63
2018-06-10T07:22:02.591Z,28.52
2018-06-10T07:24:30.894Z,26.53
2018-06-10T07:26:59.186Z,28.42
2018-06-10T07:29:27.429Z,25.72
2018-06-10T07:31:55.712Z,24.67
2018-06-10T07:34:23.997Z,22.98
2018-06-10T07:36:52.207Z,23.30
2018-06-10T07:39:25.586Z,23.25
2018-06-10T07:41:53.929Z,22.45
2018-06-10T07:44:22.214Z,21.67
2018-06-10T07:46:50.482Z,23.18
2018-06-10T07:49:18.838Z,22.75
2018-06-10T07:51:47.110Z,22.37
2018-06-10T07:54:15.383Z,22.50
2018-06-10T07:56:43.713Z,22.70
2018-06-10T07:59:11.718Z,21.47
2018-06-10T08:01:39.993Z,19.23
2018-06-10T08:04:08.423Z,19.67
2018-06-10T08:06:36.660Z,20.77
2018-06-10T08:09:07.137Z,20.35
2018-06-10T08:11:35.411Z,17.65
2018-06-10T08:14:03.715Z,17.60
2018-06-10T08:16:32.051Z,17.40
2018-06-10T08:19:00.493Z,16.77
2018-06-10T08:21:28.740Z,17.50
2018-06-10T08:23:56.977Z,17.30
2018-06-10T08:26:25.272Z,17.05
2018-06-10T08:28:53.224Z,17.10
2018-06-10T08:31:21.488Z,17.80
2018-06-10T08:33:49.747Z,16.35
2018-06-10T08:36:18.058Z,16.57
2018-06-10T08:38:46.314Z,15.18
2018-06-10T08:41:14.562Z,15.85
2018-06-10T08:43:42.826Z,15.25
2018-06-10T08:46:11.091Z,15.20
2018-06-10T08:48:39.364Z,15.15
2018-06-10T08:51:07.689Z,14.50
2018-06-10T08:53:35.946Z,15.15
2018-06-10T08:56:04.206Z,13.80
2018-06-10T08:58:32.488Z,14.53
2018-06-10T09:01:00.728Z,14.20
2018-06-10T09:03:29.004Z,13.53
2018-06-10T09:05:57.265Z,13.85
2018-06-10T09:08:25.529Z,13.27
2018-06-10T09:10:53.790Z,12.90
2018-06-10T09:13:22.065Z,12.15
2018-06-10T09:15:50.842Z,12.93
2018-06-10T09:18:19.119Z,13.28
2018-06-10T09:20:47.382Z,12.88
2018-06-10T09:23:15.418Z,12.70
2018-06-10T09:25:43.706Z,13.03
2018-06-10T09:28:11.946Z,12.80
2018-06-10T09:30:40.219Z,12.65
2018-06-10T09:33:08.207Z,12.50
2018-06-10T09:35:36.468Z,12.00
2018-06-10T09:38:04.795Z,11.95
2018-06-10T09:40:33.057Z,11.97
2018-06-10T09:43:01.313Z,12.13
2018-06-10T09:45:29.602Z,15.38
2018-06-10T09:47:57.891Z,14.50
2018-06-10T09:50:26.158Z,13.20
2018-06-10T09:52:54.411Z,12.90
2018-06-10T09:55:22.487Z,14.07
2018-06-10T09:57:50.690Z,12.50
2018-06-10T10:00:22.700Z,13.00
2018-06-10T10:02:51.053Z,14.28
2018-06-10T10:05:19.300Z,14.35
2018-06-10T10:07:47.537Z,13.60
2018-06-10T10:10:15.842Z,14.73
2018-06-10T10:12:44.096Z,15.20
2018-06-10T10:15:12.385Z,15.13
2018-06-10T10:17:40.644Z,16.20
2018-06-10T10:20:08.903Z,15.63
2018-06-10T10:22:37.157Z,15.83
2018-06-10T10:25:05.411Z,16.70
2018-06-10T10:27:33.661Z,18.52
2018-06-10T10:30:01.932Z,18.70
2018-06-10T10:32:30.218Z,18.20
2018-06-10T10:34:58.494Z,17.57
2018-06-10T10:37:26.731Z,17.37
2018-06-10T10:39:54.986Z,15.50
2018-06-10T10:42:23.258Z,15.95
2018-06-10T10:44:51.535Z,15.48
2018-06-10T10:47:19.983Z,15.20
2018-06-10T10:49:48.246Z,15.10
2018-06-10T10:52:16.571Z,14.40
2018-06-10T10:54:44.806Z,14.20
2018-06-10T10:57:12.837Z,13.80
2018-06-10T10:59:41.104Z,13.50
2018-06-10T11:02:09.347Z,14.60
2018-06-10T11:04:37.606Z,15.20
2018-06-10T11:07:05.860Z,14.73
2018-06-10T11:09:33.856Z,15.13
2018-06-10T11:12:02.085Z,15.00
2018-06-10T11:14:30.338Z,15.87
2018-06-10T11:16:58.598Z,15.68
2018-06-10T11:19:27.562Z,15.93
2018-06-10T11:21:55.781Z,14.70
2018-06-10T11:24:24.021Z,15.32
2018-06-10T11:26:52.390Z,14.38
2018-06-10T11:29:20.677Z,15.58
2018-06-10T11:31:48.978Z,15.08
2018-06-10T11:34:17.244Z,15.80
2018-06-10T11:36:45.555Z,15.68
2018-06-10T11:39:13.822Z,15.05
2018-06-10T11:41:42.045Z,15.28
2018-06-10T11:44:10.329Z,15.63
2018-06-10T11:46:38.582Z,18.00
2018-06-10T11:49:06.560Z,18.00
2018-06-10T11:51:34.816Z,18.60
2018-06-10T11:54:03.079Z,17.32
2018-06-10T11:56:31.351Z,17.80
2018-06-10T11:58:59.615Z,17.37
2018-06-10T12:01:27.589Z,18.07
2018-06-10T12:03:55.879Z,18.37
2018-06-10T12:06:24.177Z,20.02
2018-06-10T12:08:52.410Z,19.05
2018-06-10T12:11:20.665Z,19.65
2018-06-10T12:13:48.973Z,19.83
2018-06-10T12:16:17.206Z,19.40
2018-06-10T12:18:45.470Z,23.70
2018-06-10T12:21:13.783Z,23.30
2018-06-10T12:23:42.008Z,25.53
2018-06-10T12:26:10.377Z,23.07
2018-06-10T12:28:38.379Z,25.23
2018-06-10T12:31:06.680Z,23.00
2018-06-10T12:33:35.766Z,21.57
2018-06-10T12:36:03.948Z,21.90
2018-06-10T12:38:32.353Z,21.82
2018-06-10T12:41:00.665Z,21.67
2018-06-10T12:43:29.052Z,21.77
2018-06-10T12:45:57.401Z,20.17
2018-06-10T12:48:25.651Z,20.00
2018-06-10T12:50:53.897Z,21.20
2018-06-10T12:53:22.432Z,20.08
2018-06-10T12:55:50.788Z,20.60
2018-06-10T12:58:19.067Z,19.60
2018-06-10T13:00:47.351Z,19.83
2018-06-10T13:03:15.633Z,18.63
2018-06-10T13:05:44.279Z,17.52
2018-06-10T13:08:12.571Z,16.50
2018-06-10T13:10:40.829Z,16.93
2018-06-10T13:13:09.084Z,16.82
2018-06-10T13:15:37.332Z,16.87
2018-06-10T13:18:05.618Z,15.88
2018-06-10T13:20:34.048Z,15.85
2018-06-10T13:25:53.094Z,16.48
2018-06-10T13:28:21.361Z,15.60
2018-06-10T13:30:49.649Z,13.35
2018-06-10T13:33:17.682Z,14.78
2018-06-10T13:35:45.956Z,13.93
2018-06-10T13:38:14.215Z,13.08
2018-06-10T13:40:42.187Z,12.50
2018-06-10T13:43:10.432Z,14.07
2018-06-10T13:45:38.706Z,12.63
2018-06-10T13:48:07.276Z,12.60
2018-06-10T13:50:35.538Z,13.35
2018-06-10T13:53:03.802Z,13.00
2018-06-10T13:55:32.119Z,14.43
2018-06-10T13:58:00.388Z,14.07
2018-06-10T14:00:28.675Z,14.07
2018-06-10T14:02:56.928Z,13.80
2018-06-10T14:05:25.188Z,13.97
2018-06-10T14:07:53.469Z,13.43
2018-06-10T14:10:21.710Z,12.53
2018-06-10T14:12:49.965Z,13.15
2018-06-10T14:15:18.258Z,12.88
2018-06-10T14:17:46.499Z,11.88
2018-06-10T14:20:14.760Z,12.88
2018-06-10T14:22:42.993Z,12.25
2018-06-10T14:25:11.246Z,12.28
2018-06-10T14:27:39.509Z,11.80
2018-06-10T14:30:07.806Z,12.63
2018-06-10T14:32:36.052Z,11.23
2018-06-10T14:35:04.337Z,11.80
2018-06-10T14:37:33.510Z,10.50
2018-06-10T14:40:01.740Z,12.07
2018-06-10T14:42:30.024Z,11.40
2018-06-10T14:44:58.309Z,11.50
2018-06-10T14:47:26.570Z,11.50
2018-06-10T14:49:54.834Z,11.78
2018-06-10T14:52:23.200Z,12.90
2018-06-10T14:54:51.480Z,12.25
2018-06-10T14:57:19.764Z,11.20
2018-06-10T14:59:47.756Z,12.63
2018-06-10T15:02:16.014Z,13.18
2018-06-10T15:04:44.277Z,12.15
2018-06-10T15:07:12.563Z,12.13
2018-06-10T15:09:40.855Z,11.40
2018-06-10T15:12:09.163Z,12.15
2018-06-10T15:14:37.472Z,11.57
2018-06-10T15:17:05.486Z,11.60
2018-06-10T15:19:33.764Z,11.93
2018-06-10T15:22:02.067Z,11.73
2018-06-10T15:24:30.380Z,11.70
2018-06-10T15:26:58.731Z,11.33
2018-06-10T15:29:26.994Z,11.73
2018-06-10T15:31:55.687Z,12.00
2018-06-10T15:34:23.943Z,10.95
2018-06-10T15:36:52.208Z,10.98
2018-06-10T15:39:20.538Z,11.20
2018-06-10T15:41:48.781Z,9.75
2018-06-10T15:44:17.019Z,10.10
2018-06-10T15:46:45.446Z,10.60
2018-06-10T15:49:13.705Z,9.43
2018-06-10T15:51:41.983Z,9.40
2018-06-10T15:54:10.301Z,9.48
2018-06-10T15:56:38.352Z,9.53
2018-06-10T15:59:06.595Z,10.18
2018-06-10T16:01:34.950Z,9.35
2018-06-10T16:04:03.230Z,9.80
2018-06-10T16:06:31.535Z,9.45
2018-06-10T16:08:59.818Z,9.80
2018-06-10T16:11:28.076Z,8.70
2018-06-10T16:13:56.334Z,8.90
2018-06-10T16:16:24.611Z,8.45
2018-06-10T16:18:52.879Z,8.50
2018-06-10T16:21:21.107Z,8.13
2018-06-10T16:23:49.352Z,8.43
2018-06-10T16:26:17.642Z,7.67
2018-06-10T16:28:45.899Z,7.60
2018-06-10T16:31:14.216Z,7.57
2018-06-10T16:33:42.544Z,7.80
2018-06-10T16:36:10.820Z,7.33
2018-06-10T16:38:39.110Z,7.22
2018-06-10T16:41:07.419Z,8.00
2018-06-10T16:43:35.746Z,7.10
2018-06-10T16:46:04.130Z,7.78
2018-06-10T16:48:32.436Z,6.80
2018-06-10T16:51:00.678Z,6.90
2018-06-10T16:53:28.951Z,8.05
2018-06-10T16:55:57.319Z,7.30
2018-06-10T16:58:25.555Z,7.40
2018-06-10T17:00:53.841Z,7.17
2018-06-10T17:03:22.071Z,7.47
2018-06-10T17:05:50.287Z,7.50
2018-06-10T17:08:18.616Z,7.70
2018-06-10T17:10:46.895Z,7.90
2018-06-10T17:13:14.923Z,7.62
2018-06-10T17:15:43.200Z,7.17
2018-06-10T17:18:11.439Z,7.55
2018-06-10T17:20:39.687Z,7.25
2018-06-10T17:23:07.674Z,6.87
2018-06-10T17:25:35.643Z,6.67
2018-06-10T17:28:03.892Z,7.80
2018-06-10T17:30:32.161Z,7.20
2018-06-10T17:33:00.455Z,7.33
2018-06-10T17:35:28.777Z,7.60
2018-06-10T17:37:57.023Z,8.23
2018-06-10T17:40:25.290Z,8.50
2018-06-10T17:42:53.253Z,9.23
2018-06-10T17:45:21.538Z,8.20
2018-06-10T17:47:49.806Z,9.03
2018-06-10T17:50:18.024Z,9.20
2018-06-10T17:52:46.320Z,9.80
2018-06-10T17:55:14.609Z,9.43
2018-06-10T17:57:42.835Z,9.08
2018-06-10T18:00:11.207Z,10.10
2018-06-10T18:02:39.454Z,10.70
2018-06-10T18:05:07.720Z,10.08
2018-06-10T18:07:35.963Z,10.40
2018-06-10T18:10:04.356Z,10.60
2018-06-10T18:12:32.599Z,10.50
2018-06-10T18:15:00.857Z,10.90
2018-06-10T18:17:29.175Z,10.82
2018-06-10T18:19:57.415Z,10.55
2018-06-10T18:22:25.671Z,11.40
2018-06-10T18:24:54.329Z,11.20
2018-06-10T18:27:22.572Z,11.53
2018-06-10T18:29:50.834Z,10.32
2018-06-10T18:32:19.102Z,12.00
2018-06-10T18:34:47.356Z,11.80
2018-06-10T18:37:15.605Z,12.10
2018-06-10T18:39:43.848Z,13.38
2018-06-10T18:42:12.096Z,12.88
2018-06-10T18:44:40.120Z,13.10
2018-06-10T18:47:08.351Z,13.85
2018-06-10T18:49:36.607Z,13.90
2018-06-10T18:52:04.878Z,13.88
2018-06-10T18:54:33.175Z,13.48
2018-06-10T18:57:01.412Z,14.10
2018-06-10T18:59:29.686Z,14.30
2018-06-10T19:01:57.927Z,14.33
2018-06-10T19:04:26.229Z,14.00
2018-06-10T19:06:54.482Z,14.45
2018-06-10T19:09:22.729Z,14.13
2018-06-10T19:11:50.998Z,14.18
2018-06-10T19:14:19.420Z,14.53
2018-06-10T19:16:47.645Z,16.12
2018-06-10T19:19:15.910Z,14.80
2018-06-10T19:21:43.941Z,15.85
2018-06-10T19:24:12.234Z,15.90
2018-06-10T19:26:40.752Z,15.55
2018-06-10T19:29:09.034Z,16.05
2018-06-10T19:31:37.271Z,16.00
2018-06-10T19:34:05.527Z,17.30
2018-06-10T19:36:33.792Z,16.35
2018-06-10T19:39:02.068Z,17.32
2018-06-10T19:41:30.319Z,16.70
2018-06-10T19:43:58.641Z,17.50
2018-06-10T19:46:26.979Z,17.95
2018-06-10T19:48:55.098Z,17.82
2018-06-10T19:51:23.457Z,16.65
2018-06-10T19:53:52.514Z,16.95
2018-06-10T19:56:20.796Z,16.87
2018-06-10T19:58:49.039Z,17.57
2018-06-10T20:01:17.314Z,18.00
2018-06-10T20:03:45.579Z,18.90
2018-06-10T20:06:13.892Z,18.07
2018-06-10T20:08:42.199Z,18.40
2018-06-10T20:11:10.450Z,19.13
2018-06-10T20:13:38.708Z,17.80
2018-06-10T20:16:07.082Z,17.07
2018-06-10T20:18:35.319Z,18.32
2018-06-10T20:21:03.569Z,17.82
2018-06-10T20:23:31.816Z,18.00
2018-06-10T20:26:00.118Z,18.57
2018-06-10T20:28:28.444Z,17.85
2018-06-10T20:30:56.719Z,18.87
2018-06-10T20:33:24.979Z,17.20
2018-06-10T20:35:53.239Z,17.73
2018-06-10T20:38:21.573Z,17.80
2018-06-10T20:40:49.827Z,17.75
2018-06-10T20:43:18.113Z,17.90
2018-06-10T20:45:46.378Z,18.52
2018-06-10T20:48:14.754Z,18.50
2018-06-10T20:50:42.992Z,17.53
2018-06-10T20:53:11.276Z,19.12
2018-06-10T20:55:39.514Z,18.30
2018-06-10T20:58:07.769Z,17.97
2018-06-10T21:00:36.110Z,18.52
2018-06-10T21:03:04.608Z,17.90
2018-06-10T21:05:32.909Z,18.70
2018-06-10T21:08:01.166Z,19.50
2018-06-10T21:10:29.568Z,19.15
2018-06-10T21:12:57.826Z,19.73
2018-06-10T21:15:26.201Z,19.52
2018-06-10T21:17:54.494Z,20.15
2018-06-10T21:20:22.724Z,20.87
2018-06-10T21:22:51.076Z,21.50
2018-06-10T21:25:19.319Z,20.92
2018-06-10T21:27:47.608Z,20.45
2018-06-10T21:30:16.269Z,21.35
2018-06-10T21:32:44.527Z,21.77
2018-06-10T21:35:12.536Z,20.65
2018-06-10T21:37:40.804Z,20.30
2018-06-10T21:40:08.817Z,20.50
2018-06-10T21:42:37.102Z,20.52
2018-06-10T21:45:05.671Z,20.60
2018-06-10T21:47:33.695Z,20.30
2018-06-10T21:50:01.955Z,19.57
2018-06-10T21:52:30.206Z,19.40
2018-06-10T21:54:58.464Z,19.62
2018-06-10T21:57:26.762Z,19.53
2018-06-10T21:59:55.024Z,19.10
2018-06-10T22:02:23.422Z,18.25
2018-06-10T22:04:51.699Z,18.30
2018-06-10T22:07:19.959Z,18.40
2018-06-10T22:09:48.320Z,18.50
2018-06-10T22:12:17.300Z,18.17
2018-06-10T22:14:45.625Z,17.40
2018-06-10T22:17:13.892Z,17.52
2018-06-10T22:19:42.163Z,18.30
2018-06-10T22:22:10.427Z,19.55
2018-06-10T22:24:38.668Z,18.77
2018-06-10T22:27:06.955Z,17.98
2018-06-10T22:29:35.274Z,19.27
2018-06-10T22:32:03.549Z,18.50
2018-06-10T22:34:31.813Z,18.12
2018-06-10T22:37:00.103Z,18.40
2018-06-10T22:39:28.365Z,19.45
2018-06-10T22:41:56.666Z,19.25
2018-06-10T22:44:24.934Z,19.15
2018-06-10T22:46:53.297Z,18.95
2018-06-10T22:49:21.563Z,18.85
2018-06-10T22:51:49.809Z,19.05
2018-06-10T22:54:39.086Z,19.62
2018-06-10T22:57:07.860Z,18.90
2018-06-10T22:59:35.890Z,19.25
2018-06-10T23:02:05.179Z,19.42
2018-06-10T23:04:33.424Z,18.77
2018-06-10T23:07:01.695Z,19.25
2018-06-10T23:09:30.130Z,19.80
2018-06-10T23:11:58.122Z,19.67
2018-06-10T23:14:26.389Z,19.20
2018-06-10T23:16:54.655Z,19.05
2018-06-10T23:19:22.947Z,19.90
2018-06-10T23:21:51.197Z,18.85
2018-06-10T23:24:19.463Z,20.57
2018-06-10T23:26:47.732Z,19.90
2018-06-10T23:29:16.056Z,18.90
2018-06-10T23:31:44.311Z,20.00
2018-06-10T23:34:12.507Z,20.17
2018-06-10T23:36:40.543Z,20.17
2018-06-10T23:39:08.791Z,19.90
2018-06-10T23:41:37.057Z,19.23
2018-06-10T23:44:05.263Z,20.10
2018-06-10T23:46:33.722Z,19.65
2018-06-10T23:49:02.001Z,19.30
2018-06-10T23:51:30.565Z,19.50
2018-06-10T23:54:00.833Z,19.80
2018-06-10T23:56:30.145Z,19.50
2018-06-10T23:58:58.893Z,19.83
